Flight Track Log - Related Links

Times and Time Zones

All times are in EST time to prevent confusion due to time zone crossing. See the EJA929 flight status page for this flight to view local times or setup timezone preferences in your user account.


Time Position Orientation Groundspeed Altitude Reporting Facility
EST Latitude Longitude Course Direction KTS MPH feet Rate Location/Type
Thu 03:26:08 PM 40.8167 -74.2000 270° West 220 253 3,900  Level New York TRACON
Thu 03:27:08 PM 40.8000 -74.3000 258° West 254 292 7,800 3,101 Climbing New York TRACON
Thu 03:29:06 PM 40.7619 -74.4697 254° West 282 325 13,100 2,441 Climbing New York Center
Thu 03:30:00 PM 40.4470 -74.7507 237° Southwest  Level Estimated
Thu 03:30:05 PM 40.7253 -74.5744 245° Southwest 308 354 15,000  Level New York Center
Thu 03:31:05 PM 40.6772 -74.7086 245° Southwest 360 414 15,800 1,000 Climbing New York Center
Thu 03:32:05 PM 40.6258 -74.8122 237° Southwest 376 433 17,000 1,050 Climbing New York Center
Thu 03:33:05 PM 40.5567 -74.9422 235° Southwest 399 459 17,900 1,300 Climbing New York Center
Thu 03:34:05 PM 40.4986 -75.0531 235° Southwest 399 459 19,600 1,800 Climbing New York Center
Thu 03:35:05 PM 40.4381 -75.1639 234° Southwest 389 448 21,500 1,900 Climbing New York Center
Thu 03:36:05 PM 40.3800 -75.2719 235° Southwest 384 442 23,400 1,800 Climbing New York Center
Thu 03:37:05 PM 40.3217 -75.3797 235° Southwest 372 428 25,100 1,750 Climbing New York Center
Thu 03:38:05 PM 40.2631 -75.4903 235° Southwest 367 422 26,900 1,636 Climbing New York Center
Thu 03:39:06 PM 40.2022 -75.6028 235° Southwest 372 428 28,400 1,500 Climbing New York Center
Thu 03:40:05 PM 40.1408 -75.7264 237° Southwest 389 448 29,900 1,462 Climbing New York Center
Thu 03:41:05 PM 40.0792 -75.8522 237° Southwest 403 464 31,300 1,450 Climbing New York Center
Thu 03:42:05 PM 40.0200 -75.9669 236° Southwest 421 484 32,800 1,500 Climbing New York Center
Thu 03:43:05 PM 39.9558 -76.0922 236° Southwest 421 484 34,300 1,550 Climbing New York Center
Thu 03:44:05 PM 39.8850 -76.2331 237° Southwest 421 484 35,900 1,442 Climbing New York Center
Thu 03:45:39 PM 39.7919 -76.4150 236° Southwest 417 480 38,000 1,145 Climbing Washington Center
Thu 03:46:37 PM 39.7436 -76.5089 236° Southwest 417 480 38,800 814 Climbing Washington Center
Thu 03:47:37 PM 39.6694 -76.6403 234° Southwest 417 480 39,600 595 Climbing Washington Center
Thu 03:48:38 PM 39.6081 -76.7606 237° Southwest 417 480 40,000 198 Climbing Washington Center
Thu 03:49:38 PM 39.5442 -76.8833 236° Southwest 417 480 40,000  Level Washington Center
Thu 03:50:39 PM 39.4742 -77.0003 232° Southwest 422 486 40,000  Level Washington Center
Thu 03:51:39 PM 39.3856 -77.0981 220° Southwest 422 486 40,000  Level Washington Center
Thu 03:52:37 PM 39.2925 -77.1925 218° Southwest 422 486 40,000  Level Washington Center
Thu 03:53:38 PM 39.1975 -77.2922 219° Southwest 432 497 40,000  Level Washington Center
Thu 03:54:38 PM 39.1086 -77.3839 219° Southwest 432 497 40,000  Level Washington Center
Thu 03:55:39 PM 39.0153 -77.4803 219° Southwest 427 491 40,000  Level Washington Center
Thu 03:56:38 PM 38.9219 -77.5767 219° Southwest 432 497 40,000  Level Washington Center
Thu 03:57:38 PM 38.8414 -77.6597 219° Southwest 427 491 40,000  Level Washington Center
Thu 03:58:38 PM 38.7267 -77.7764 218° Southwest 432 497 40,000  Level Washington Center
Thu 03:59:39 PM 38.6375 -77.8719 220° Southwest 432 497 40,000  Level Washington Center
Thu 04:00:37 PM 38.5686 -77.9869 233° Southwest 415 478 40,000  Level Washington Center
Thu 04:01:37 PM 38.5014 -78.1014 233° Southwest 415 478 40,000  Level Washington Center
Thu 04:02:38 PM 38.4322 -78.2183 233° Southwest 415 478 40,000  Level Washington Center
Thu 04:03:39 PM 38.3650 -78.3325 233° Southwest 410 472 40,000  Level Washington Center
Thu 04:04:38 PM 38.2978 -78.4464 233° Southwest 410 472 40,000  Level Washington Center
Thu 04:05:38 PM 38.2344 -78.5631 235° Southwest 405 466 40,000  Level Washington Center
Thu 04:06:39 PM 38.1669 -78.6739 232° Southwest 405 466 40,000  Level Washington Center
Thu 04:07:37 PM 38.0975 -78.7872 232° Southwest 405 466 40,000  Level Washington Center
Thu 04:08:37 PM 38.0383 -78.8900 234° Southwest 405 466 40,000  Level Washington Center
Thu 04:09:37 PM 37.9683 -79.0028 232° Southwest 405 466 40,000  Level Washington Center
Thu 04:10:38 PM 37.9006 -79.1156 233° Southwest 405 466 40,000  Level Washington Center
Thu 04:11:39 PM 37.8222 -79.2225 227° Southwest 411 473 40,000  Level Washington Center
Thu 04:12:39 PM 37.7394 -79.3392 228° Southwest 411 473 40,000  Level Washington Center
Thu 04:13:37 PM 37.6589 -79.4453 226° Southwest 416 479 40,000  Level Washington Center
Thu 04:14:37 PM 37.5911 -79.5389 228° Southwest 410 472 40,000  Level Washington Center
Thu 04:15:38 PM 37.5078 -79.6550 228° Southwest 410 472 40,000  Level Washington Center
Thu 04:16:38 PM 37.4447 -79.7353 225° Southwest 410 472 40,000  Level Washington Center
Thu 04:17:40 PM 37.3503 -79.8661 228° Southwest 430 495 40,000  Level Washington Center
Thu 04:19:39 PM 37.1972 -80.0706 227° Southwest 427 491 40,000  Level Atlanta Center
Thu 04:20:39 PM 37.1194 -80.1761 227° Southwest 422 486 40,000  Level Atlanta Center
Thu 04:21:39 PM 37.0414 -80.2814 227° Southwest 422 486 40,000  Level Atlanta Center
Thu 04:22:39 PM 36.9653 -80.3836 227° Southwest 412 474 40,000  Level Atlanta Center
Thu 04:23:39 PM 36.8789 -80.4967 226° Southwest 412 474 40,000  Level Atlanta Center
Thu 04:24:39 PM 36.8006 -80.6014 227° Southwest 412 474 40,000  Level Atlanta Center
Thu 04:25:39 PM 36.7342 -80.6922 228° Southwest 407 468 40,000  Level Atlanta Center
Thu 04:26:39 PM 36.6619 -80.8014 231° Southwest 408 470 40,000  Level Atlanta Center
Thu 04:27:39 PM 36.5900 -80.9153 232° Southwest 414 476 40,000  Level Atlanta Center
Thu 04:28:39 PM 36.5156 -81.0269 230° Southwest 414 476 40,000  Level Atlanta Center
Thu 04:29:39 PM 36.4453 -81.1378 232° Southwest 414 476 40,000  Level Atlanta Center
Thu 04:30:39 PM 36.3728 -81.2489 231° Southwest 419 482 40,000  Level Atlanta Center
Thu 04:31:39 PM 36.2981 -81.3594 230° Southwest 419 482 40,000  Level Atlanta Center
Thu 04:32:39 PM 36.2153 -81.4833 230° Southwest 425 489 40,000  Level Atlanta Center
Thu 04:33:39 PM 36.1403 -81.5986 231° Southwest 430 495 40,000  Level Atlanta Center
Thu 04:34:39 PM 36.0633 -81.7114 230° Southwest 430 495 40,000  Level Atlanta Center
Thu 04:35:39 PM 35.9861 -81.8267 230° Southwest 436 502 40,000  Level Atlanta Center
Thu 04:36:39 PM 35.9111 -81.9389 230° Southwest 436 502 40,000 -200 Level Atlanta Center
Thu 04:37:39 PM 35.8356 -82.0486 230° Southwest 436 502 39,600 -950 Descending Atlanta Center
Thu 04:38:39 PM 35.7622 -82.1578 230° Southwest 436 502 38,100 -1,500 Descending Atlanta Center
Thu 04:39:39 PM 35.6928 -82.2592 230° Southwest 415 478 36,600 -1,400 Descending Atlanta Center
Thu 04:40:39 PM 35.6214 -82.3653 230° Southwest 409 471 35,300 -1,250 Descending Atlanta Center
Thu 04:41:39 PM 35.5456 -82.4767 230° Southwest 414 476 34,100 -1,450 Descending Atlanta Center
Thu 04:42:39 PM 35.4656 -82.5803 227° Southwest 414 476 32,400 -1,750 Descending Atlanta Center
Thu 04:43:39 PM 35.3897 -82.6936 231° Southwest 421 484 30,600 -1,800 Descending Atlanta Center
Thu 04:44:39 PM 35.3114 -82.8069 230° Southwest 437 503 28,800 -1,800 Descending Atlanta Center
Thu 04:45:39 PM 35.2311 -82.9200 229° Southwest 437 503 27,000 -1,700 Descending Atlanta Center
Thu 04:46:39 PM 35.1550 -83.0328 230° Southwest 432 497 25,400 -1,650 Descending Atlanta Center
Thu 04:47:39 PM 35.0828 -83.1378 230° Southwest 432 497 23,700 -1,700 Descending Atlanta Center
Thu 04:48:39 PM 35.0064 -83.2425 228° Southwest 426 490 22,000 -1,650 Descending Atlanta Center
Thu 04:49:39 PM 34.9319 -83.3497 230° Southwest 426 490 20,400 -1,850 Descending Atlanta Center
Thu 04:50:39 PM 34.8594 -83.4514 229° Southwest 410 472 18,300 -1,750 Descending Atlanta Center
Thu 04:51:39 PM 34.7908 -83.5481 229° Southwest 400 460 16,900 -1,450 Descending Atlanta Center
Thu 04:52:39 PM 34.7183 -83.6497 229° Southwest 395 455 15,400 -1,500 Descending Atlanta Center
Thu 04:53:39 PM 34.6475 -83.7458 228° Southwest 388 447 13,900 -1,450 Descending Atlanta Center
Thu 04:54:39 PM 34.5747 -83.8369 226° Southwest 378 435 12,500 -1,350 Descending Atlanta Center
Thu 04:55:39 PM 34.5081 -83.8975 217° Southwest 347 399 11,200 -1,300 Descending Atlanta Center
Thu 04:56:39 PM 34.4494 -83.9506 217° Southwest 307 353 9,900 -1,300 Descending Atlanta Center
Thu 04:57:39 PM 34.3911 -84.0036 217° Southwest 269 310 8,600 -950 Descending Atlanta Center
Thu 04:58:39 PM 34.3369 -84.0514 216° Southwest 258 297 8,000 -300 Descending Atlanta Center
Thu 04:59:39 PM 34.2825 -84.0892 210° Southwest 258 297 8,000 -750 Level Atlanta Center
Thu 05:00:39 PM 34.2181 -84.1292 207° Southwest 258 297 6,500 -1,600 Descending Atlanta Center
Thu 05:01:39 PM 34.1572 -84.1644 206° Southwest 258 297 4,800 -1,550 Descending Atlanta Center
Thu 05:02:39 PM 34.1053 -84.1944 206° Southwest 234 269 3,400 -900 Descending Atlanta Center
Thu 05:03:39 PM 34.0614 -84.2169 203° Southwest 191 220 3,000 -200 Descending Atlanta Center
Thu 05:04:39 PM 34.0153 -84.2392 202° Southwest 178 205 3,000 -100 Level Atlanta Center
Thu 05:05:39 PM 33.9653 -84.2617 200° South 178 205 2,800 -450 Descending Atlanta Center
Thu 05:06:39 PM 33.9256 -84.2792 200° South 163 188 2,100 -750 Descending Atlanta Center
Thu 05:07:39 PM 33.8919 -84.2967 203° Southwest 148 170 1,300 -800 Descending Atlanta Center
Thu 05:09:00 PM 33.8756 -84.3020 209° Southwest  Level Estimated

Login

Don't have an account? Register now (free) for customized features, flight alerts, and more!